sensor_id;sensor_type;location;lat;lon;timestamp;pressure;altitude;pressure_sealevel;temperature;humidity
18323;BME280;9287;49.456;11.064;2023-07-22T00:00:46;98033.28;;;16.41;100.00
18323;BME280;9287;49.456;11.064;2023-07-22T00:03:14;98035.59;;;16.35;100.00
18323;BME280;9287;49.456;11.064;2023-07-22T00:05:42;98026.91;;;16.22;100.00
18323;BME280;9287;49.456;11.064;2023-07-22T00:08:10;98034.75;;;16.17;100.00
18323;BME280;9287;49.456;11.064;2023-07-22T00:10:40;98035.56;;;16.21;100.00
18323;BME280;9287;49.456;11.064;2023-07-22T00:13:08;98043.78;;;16.14;100.00
18323;BME280;9287;49.456;11.064;2023-07-22T00:15:38;98043.38;;;16.05;100.00
18323;BME280;9287;49.456;11.064;2023-07-22T00:18:05;98046.50;;;15.99;100.00
18323;BME280;9287;49.456;11.064;2023-07-22T00:20:34;98046.53;;;16.07;100.00
18323;BME280;9287;49.456;11.064;2023-07-22T00:23:02;98037.06;;;16.00;100.00
18323;BME280;9287;49.456;11.064;2023-07-22T00:25:30;98039.34;;;15.84;100.00
18323;BME280;9287;49.456;11.064;2023-07-22T00:27:58;98037.81;;;15.90;100.00
18323;BME280;9287;49.456;11.064;2023-07-22T00:30:25;98035.84;;;15.94;100.00
18323;BME280;9287;49.456;11.064;2023-07-22T00:32:56;98029.94;;;15.89;100.00
18323;BME280;9287;49.456;11.064;2023-07-22T00:35:24;98025.22;;;15.89;100.00
18323;BME280;9287;49.456;11.064;2023-07-22T00:37:51;98031.88;;;15.88;100.00
18323;BME280;9287;49.456;11.064;2023-07-22T00:40:19;98029.13;;;15.85;100.00
18323;BME280;9287;49.456;11.064;2023-07-22T00:42:47;98032.19;;;15.76;100.00
18323;BME280;9287;49.456;11.064;2023-07-22T00:45:16;98025.16;;;15.82;100.00
18323;BME280;9287;49.456;11.064;2023-07-22T00:47:44;98021.25;;;15.87;100.00
18323;BME280;9287;49.456;11.064;2023-07-22T00:50:14;98019.63;;;15.75;100.00
18323;BME280;9287;49.456;11.064;2023-07-22T00:52:42;98020.47;;;15.86;100.00
18323;BME280;9287;49.456;11.064;2023-07-22T00:55:10;98029.09;;;15.81;100.00
18323;BME280;9287;49.456;11.064;2023-07-22T00:57:38;98025.22;;;15.89;100.00
18323;BME280;9287;49.456;11.064;2023-07-22T01:00:07;98022.81;;;15.84;100.00
18323;BME280;9287;49.456;11.064;2023-07-22T01:02:38;98019.66;;;15.82;100.00
18323;BME280;9287;49.456;11.064;2023-07-22T01:05:07;98015.78;;;15.90;100.00
18323;BME280;9287;49.456;11.064;2023-07-22T01:07:38;98026.00;;;15.90;100.00
18323;BME280;9287;49.456;11.064;2023-07-22T01:10:07;98007.81;;;15.78;100.00
18323;BME280;9287;49.456;11.064;2023-07-22T01:12:36;98012.50;;;15.67;100.00
18323;BME280;9287;49.456;11.064;2023-07-22T01:15:05;98017.25;;;15.74;100.00
18323;BME280;9287;49.456;11.064;2023-07-22T01:17:36;98018.91;;;15.89;100.00
18323;BME280;9287;49.456;11.064;2023-07-22T01:20:06;98011.81;;;15.88;100.00
18323;BME280;9287;49.456;11.064;2023-07-22T01:22:38;98022.03;;;15.84;100.00
18323;BME280;9287;49.456;11.064;2023-07-22T01:25:08;98031.47;;;15.83;100.00
18323;BME280;9287;49.456;11.064;2023-07-22T01:27:36;98018.88;;;15.82;100.00
18323;BME280;9287;49.456;11.064;2023-07-22T01:30:05;98018.13;;;15.88;100.00
18323;BME280;9287;49.456;11.064;2023-07-22T01:32:36;98022.09;;;15.98;100.00
18323;BME280;9287;49.456;11.064;2023-07-22T01:35:06;98021.22;;;15.83;100.00
18323;BME280;9287;49.456;11.064;2023-07-22T01:37:34;98017.66;;;15.79;100.00
18323;BME280;9287;49.456;11.064;2023-07-22T01:40:02;98011.72;;;15.66;100.00
18323;BME280;9287;49.456;11.064;2023-07-22T01:42:39;98002.97;;;15.54;100.00
18323;BME280;9287;49.456;11.064;2023-07-22T01:45:08;97999.81;;;15.52;100.00
18323;BME280;9287;49.456;11.064;2023-07-22T01:47:37;98003.81;;;15.58;100.00
18323;BME280;9287;49.456;11.064;2023-07-22T01:50:06;98002.22;;;15.57;100.00
18323;BME280;9287;49.456;11.064;2023-07-22T01:52:34;98003.41;;;15.56;100.00
18323;BME280;9287;49.456;11.064;2023-07-22T01:55:02;98004.28;;;15.74;100.00
18323;BME280;9287;49.456;11.064;2023-07-22T01:57:32;98005.41;;;15.66;100.00
18323;BME280;9287;49.456;11.064;2023-07-22T02:00:02;98003.41;;;15.56;100.00
18323;BME280;9287;49.456;11.064;2023-07-22T02:02:31;97996.59;;;15.43;100.00
18323;BME280;9287;49.456;11.064;2023-07-22T02:04:59;97998.19;;;15.47;100.00
18323;BME280;9287;49.456;11.064;2023-07-22T02:07:28;98000.13;;;15.40;100.00
18323;BME280;9287;49.456;11.064;2023-07-22T02:09:55;97998.56;;;15.39;100.00
18323;BME280;9287;49.456;11.064;2023-07-22T02:12:23;98010.66;;;15.30;100.00
18323;BME280;9287;49.456;11.064;2023-07-22T02:14:51;98012.72;;;15.44;100.00
18323;BME280;9287;49.456;11.064;2023-07-22T02:17:20;98017.84;;;15.46;100.00
18323;BME280;9287;49.456;11.064;2023-07-22T02:19:48;98020.56;;;15.39;100.00
18323;BME280;9287;49.456;11.064;2023-07-22T02:22:16;98020.91;;;15.33;100.00
18323;BME280;9287;49.456;11.064;2023-07-22T02:24:44;98025.59;;;15.29;100.00
18323;BME280;9287;49.456;11.064;2023-07-22T02:27:12;98022.50;;;15.35;100.00
18323;BME280;9287;49.456;11.064;2023-07-22T02:29:40;98010.22;;;15.21;100.00
18323;BME280;9287;49.456;11.064;2023-07-22T02:32:08;98023.91;;;15.14;100.00
18323;BME280;9287;49.456;11.064;2023-07-22T02:34:37;98026.22;;;15.05;100.00
18323;BME280;9287;49.456;11.064;2023-07-22T02:37:05;98029.75;;;15.09;100.00
18323;BME280;9287;49.456;11.064;2023-07-22T02:39:33;98036.44;;;15.08;100.00
18323;BME280;9287;49.456;11.064;2023-07-22T02:42:00;98037.25;;;15.12;100.00
18323;BME280;9287;49.456;11.064;2023-07-22T02:44:28;98017.59;;;15.10;100.00
18323;BME280;9287;49.456;11.064;2023-07-22T02:46:56;98021.56;;;15.16;100.00
18323;BME280;9287;49.456;11.064;2023-07-22T02:49:24;98022.28;;;15.06;100.00
18323;BME280;9287;49.456;11.064;2023-07-22T02:51:54;98036.47;;;15.12;100.00
18323;BME280;9287;49.456;11.064;2023-07-22T02:54:22;98037.97;;;15.02;100.00
18323;BME280;9287;49.456;11.064;2023-07-22T02:56:52;98034.84;;;15.04;100.00
18323;BME280;9287;49.456;11.064;2023-07-22T02:59:19;98036.31;;;14.94;100.00
18323;BME280;9287;49.456;11.064;2023-07-22T03:01:47;98026.91;;;14.95;100.00
18323;BME280;9287;49.456;11.064;2023-07-22T03:04:18;98037.84;;;14.88;100.00
18323;BME280;9287;49.456;11.064;2023-07-22T03:06:46;98033.91;;;14.85;100.00
18323;BME280;9287;49.456;11.064;2023-07-22T03:09:16;98040.19;;;14.86;100.00
18323;BME280;9287;49.456;11.064;2023-07-22T03:11:44;98043.19;;;14.74;100.00
18323;BME280;9287;49.456;11.064;2023-07-22T03:14:12;98052.69;;;14.80;100.00
18323;BME280;9287;49.456;11.064;2023-07-22T03:16:40;98048.75;;;14.81;100.00
18323;BME280;9287;49.456;11.064;2023-07-22T03:19:08;98051.78;;;14.69;100.00
18323;BME280;9287;49.456;11.064;2023-07-22T03:21:36;98043.19;;;14.74;100.00
18323;BME280;9287;49.456;11.064;2023-07-22T03:24:07;98046.31;;;14.72;100.00
18323;BME280;9287;49.456;11.064;2023-07-22T03:26:37;98043.13;;;14.67;100.00
18323;BME280;9287;49.456;11.064;2023-07-22T03:29:05;98052.59;;;14.69;100.00
18323;BME280;9287;49.456;11.064;2023-07-22T03:31:32;98057.16;;;14.58;100.00
18323;BME280;9287;49.456;11.064;2023-07-22T03:34:00;98061.06;;;14.53;100.00
18323;BME280;9287;49.456;11.064;2023-07-22T03:36:28;98058.78;;;14.62;100.00
18323;BME280;9287;49.456;11.064;2023-07-22T03:38:56;98070.94;;;14.61;100.00
18323;BME280;9287;49.456;11.064;2023-07-22T03:41:24;98082.25;;;14.56;100.00
18323;BME280;9287;49.456;11.064;2023-07-22T03:43:54;98085.47;;;14.62;100.00
18323;BME280;9287;49.456;11.064;2023-07-22T03:46:24;98079.28;;;14.72;100.00
18323;BME280;9287;49.456;11.064;2023-07-22T03:48:53;98081.75;;;14.81;100.00
18323;BME280;9287;49.456;11.064;2023-07-22T03:51:22;98082.34;;;14.63;100.00
18323;BME280;9287;49.456;11.064;2023-07-22T03:53:50;98088.69;;;14.68;100.00
18323;BME280;9287;49.456;11.064;2023-07-22T03:56:18;98095.03;;;14.72;100.00
18323;BME280;9287;49.456;11.064;2023-07-22T03:58:46;98089.84;;;14.67;100.00
18323;BME280;9287;49.456;11.064;2023-07-22T04:01:20;98090.41;;;14.83;100.00
18323;BME280;9287;49.456;11.064;2023-07-22T04:03:49;98092.03;;;14.91;100.00
18323;BME280;9287;49.456;11.064;2023-07-22T04:06:20;98089.72;;;14.93;100.00
18323;BME280;9287;49.456;11.064;2023-07-22T04:08:48;98096.75;;;14.87;100.00
18323;BME280;9287;49.456;11.064;2023-07-22T04:11:17;98086.50;;;14.84;100.00
18323;BME280;9287;49.456;11.064;2023-07-22T04:13:45;98084.91;;;14.83;100.00
18323;BME280;9287;49.456;11.064;2023-07-22T04:16:13;98088.91;;;14.89;100.00
18323;BME280;9287;49.456;11.064;2023-07-22T04:18:42;98089.69;;;14.89;100.00
18323;BME280;9287;49.456;11.064;2023-07-22T04:21:10;98087.38;;;14.95;100.00
18323;BME280;9287;49.456;11.064;2023-07-22T04:23:38;98094.47;;;14.96;100.00
18323;BME280;9287;49.456;11.064;2023-07-22T04:26:06;98094.47;;;14.96;100.00
18323;BME280;9287;49.456;11.064;2023-07-22T04:28:34;98104.63;;;14.92;100.00
18323;BME280;9287;49.456;11.064;2023-07-22T04:31:03;98103.91;;;14.98;100.00
18323;BME280;9287;49.456;11.064;2023-07-22T04:33:31;98108.28;;;15.03;100.00
18323;BME280;9287;49.456;11.064;2023-07-22T04:36:00;98104.00;;;15.09;100.00
18323;BME280;9287;49.456;11.064;2023-07-22T04:38:28;98108.38;;;15.14;100.00
18323;BME280;9287;49.456;11.064;2023-07-22T04:40:56;98099.34;;;15.13;100.00
18323;BME280;9287;49.456;11.064;2023-07-22T04:43:24;98102.50;;;15.15;100.00
18323;BME280;9287;49.456;11.064;2023-07-22T04:45:53;98105.78;;;15.31;100.00
18323;BME280;9287;49.456;11.064;2023-07-22T04:48:21;98099.47;;;15.27;100.00
18323;BME280;9287;49.456;11.064;2023-07-22T04:50:50;98103.38;;;15.26;100.00
18323;BME280;9287;49.456;11.064;2023-07-22T04:53:21;98096.38;;;15.32;100.00
18323;BME280;9287;49.456;11.064;2023-07-22T04:55:49;98090.66;;;15.11;100.00
18323;BME280;9287;49.456;11.064;2023-07-22T04:58:17;98101.44;;;15.30;100.00
18323;BME280;9287;49.456;11.064;2023-07-22T05:00:46;98098.69;;;15.30;100.00
18323;BME280;9287;49.456;11.064;2023-07-22T05:03:15;98117.91;;;15.23;100.00
18323;BME280;9287;49.456;11.064;2023-07-22T05:05:43;98117.63;;;15.36;100.00
18323;BME280;9287;49.456;11.064;2023-07-22T05:08:10;98127.97;;;15.53;100.00
18323;BME280;9287;49.456;11.064;2023-07-22T05:10:40;98126.34;;;15.48;100.00
18323;BME280;9287;49.456;11.064;2023-07-22T05:13:08;98129.16;;;15.52;100.00
18323;BME280;9287;49.456;11.064;2023-07-22T05:15:36;98123.81;;;15.70;100.00
18323;BME280;9287;49.456;11.064;2023-07-22T05:18:04;98130.53;;;15.79;100.00
18323;BME280;9287;49.456;11.064;2023-07-22T05:20:32;98129.63;;;15.61;100.00
18323;BME280;9287;49.456;11.064;2023-07-22T05:22:59;98120.25;;;15.69;100.00
18323;BME280;9287;49.456;11.064;2023-07-22T05:25:27;98126.59;;;15.77;100.00
18323;BME280;9287;49.456;11.064;2023-07-22T05:27:56;98134.91;;;15.84;100.00
18323;BME280;9287;49.456;11.064;2023-07-22T05:30:24;98133.00;;;15.95;100.00
18323;BME280;9287;49.456;11.064;2023-07-22T05:33:01;98128.09;;;15.67;100.00
18323;BME280;9287;49.456;11.064;2023-07-22T05:35:29;98126.63;;;15.80;100.00
18323;BME280;9287;49.456;11.064;2023-07-22T05:37:57;98127.47;;;15.88;100.00
18323;BME280;9287;49.456;11.064;2023-07-22T05:40:25;98124.75;;;15.91;100.00
18323;BME280;9287;49.456;11.064;2023-07-22T05:42:53;98132.38;;;15.61;100.00
18323;BME280;9287;49.456;11.064;2023-07-22T05:45:22;98129.78;;;15.82;100.00
18323;BME280;9287;49.456;11.064;2023-07-22T05:47:50;98127.19;;;16.11;100.00
18323;BME280;9287;49.456;11.064;2023-07-22T05:50:18;98136.31;;;16.22;100.00
18323;BME280;9287;49.456;11.064;2023-07-22T05:52:45;98132.41;;;16.26;100.00
18323;BME280;9287;49.456;11.064;2023-07-22T05:55:14;98137.16;;;16.26;100.00
18323;BME280;9287;49.456;11.064;2023-07-22T05:57:42;98133.22;;;16.34;100.00
18323;BME280;9287;49.456;11.064;2023-07-22T06:00:11;98138.72;;;16.30;100.00
18323;BME280;9287;49.456;11.064;2023-07-22T06:02:41;98139.22;;;16.54;100.00
18323;BME280;9287;49.456;11.064;2023-07-22T06:05:09;98144.31;;;16.48;100.00
18323;BME280;9287;49.456;11.064;2023-07-22T06:07:36;98145.13;;;16.52;100.00
18323;BME280;9287;49.456;11.064;2023-07-22T06:10:05;98154.16;;;16.49;100.00
18323;BME280;9287;49.456;11.064;2023-07-22T06:12:34;98151.47;;;16.60;100.00
18323;BME280;9287;49.456;11.064;2023-07-22T06:15:02;98162.47;;;16.56;100.00
18323;BME280;9287;49.456;11.064;2023-07-22T06:17:30;98161.66;;;16.52;100.00
18323;BME280;9287;49.456;11.064;2023-07-22T06:19:59;98163.28;;;16.60;100.00
18323;BME280;9287;49.456;11.064;2023-07-22T06:22:27;98176.72;;;16.65;100.00
18323;BME280;9287;49.456;11.064;2023-07-22T06:24:54;98172.84;;;16.77;100.00
18323;BME280;9287;49.456;11.064;2023-07-22T06:27:22;98174.34;;;16.67;100.00
18323;BME280;9287;49.456;11.064;2023-07-22T06:29:50;98183.81;;;16.70;100.00
18323;BME280;9287;49.456;11.064;2023-07-22T06:32:18;98182.91;;;16.48;100.00
18323;BME280;9287;49.456;11.064;2023-07-22T06:34:46;98188.44;;;16.52;100.00
18323;BME280;9287;49.456;11.064;2023-07-22T06:37:15;98191.47;;;16.25;100.00
18323;BME280;9287;49.456;11.064;2023-07-22T06:39:42;98195.44;;;16.35;100.00
18323;BME280;9287;49.456;11.064;2023-07-22T06:42:10;98187.63;;;16.44;100.00
18323;BME280;9287;49.456;11.064;2023-07-22T06:44:38;98182.69;;;16.13;100.00
18323;BME280;9287;49.456;11.064;2023-07-22T06:47:06;98195.38;;;16.28;100.00
18323;BME280;9287;49.456;11.064;2023-07-22T06:49:34;98188.44;;;16.52;100.00
18323;BME280;9287;49.456;11.064;2023-07-22T06:52:02;98197.09;;;16.50;100.00
18323;BME280;9287;49.456;11.064;2023-07-22T06:54:31;98186.06;;;16.50;100.00
18323;BME280;9287;49.456;11.064;2023-07-22T06:56:59;98189.22;;;16.52;100.00
18323;BME280;9287;49.456;11.064;2023-07-22T06:59:27;98186.53;;;16.59;100.00
18323;BME280;9287;49.456;11.064;2023-07-22T07:01:55;98186.16;;;16.64;100.00
18323;BME280;9287;49.456;11.064;2023-07-22T07:04:23;98192.53;;;16.83;100.00
18323;BME280;9287;49.456;11.064;2023-07-22T07:06:51;98187.84;;;16.94;100.00
18323;BME280;9287;49.456;11.064;2023-07-22T07:09:19;98189.03;;;17.00;100.00
18323;BME280;9287;49.456;11.064;2023-07-22T07:11:49;98186.31;;;17.07;100.00
18323;BME280;9287;49.456;11.064;2023-07-22T07:14:17;98194.63;;;17.14;100.00
18323;BME280;9287;49.456;11.064;2023-07-22T07:16:46;98190.19;;;16.88;100.00
18323;BME280;9287;49.456;11.064;2023-07-22T07:19:14;98208.00;;;17.16;100.00
18323;BME280;9287;49.456;11.064;2023-07-22T07:21:41;98202.94;;;17.43;100.00
18323;BME280;9287;49.456;11.064;2023-07-22T07:24:09;98206.91;;;17.56;100.00
18323;BME280;9287;49.456;11.064;2023-07-22T07:26:37;98204.53;;;17.51;100.00
18323;BME280;9287;49.456;11.064;2023-07-22T07:29:06;98206.16;;;18.16;100.00
18323;BME280;9287;49.456;11.064;2023-07-22T07:31:34;98212.47;;;17.95;100.00
18323;BME280;9287;49.456;11.064;2023-07-22T07:34:02;98209.72;;;17.73;100.00
18323;BME280;9287;49.456;11.064;2023-07-22T07:36:31;98210.09;;;17.86;100.00
18323;BME280;9287;49.456;11.064;2023-07-22T07:38:59;98228.25;;;17.87;100.00
18323;BME280;9287;49.456;11.064;2023-07-22T07:41:27;98228.22;;;17.62;100.00
18323;BME280;9287;49.456;11.064;2023-07-22T07:43:55;98235.28;;;17.42;100.00
18323;BME280;9287;49.456;11.064;2023-07-22T07:46:26;98229.34;;;17.36;100.00
18323;BME280;9287;49.456;11.064;2023-07-22T07:48:56;98227.38;;;17.33;100.00
18323;BME280;9287;49.456;11.064;2023-07-22T07:51:25;98224.19;;;17.24;100.00
18323;BME280;9287;49.456;11.064;2023-07-22T07:53:54;98228.16;;;17.37;100.00
18323;BME280;9287;49.456;11.064;2023-07-22T07:56:22;98225.81;;;17.50;100.00
18323;BME280;9287;49.456;11.064;2023-07-22T07:58:53;98237.63;;;17.36;100.00
18323;BME280;9287;49.456;11.064;2023-07-22T08:01:21;98232.56;;;17.67;100.00
18323;BME280;9287;49.456;11.064;2023-07-22T08:03:51;98236.13;;;17.67;100.00
18323;BME280;9287;49.456;11.064;2023-07-22T08:06:18;98227.88;;;17.64;100.00
18323;BME280;9287;49.456;11.064;2023-07-22T08:08:46;98232.47;;;17.21;100.00
18323;BME280;9287;49.456;11.064;2023-07-22T08:11:14;98224.25;;;17.53;100.00
18323;BME280;9287;49.456;11.064;2023-07-22T08:13:43;98227.44;;;17.69;100.00
18323;BME280;9287;49.456;11.064;2023-07-22T08:16:13;98221.78;;;18.86;100.00
18323;BME280;9287;49.456;11.064;2023-07-22T08:18:41;98217.78;;;18.91;99.12
18323;BME280;9287;49.456;11.064;2023-07-22T08:21:11;98224.25;;;18.45;97.99
18323;BME280;9287;49.456;11.064;2023-07-22T08:23:38;98224.03;;;19.09;94.84
18323;BME280;9287;49.456;11.064;2023-07-22T08:26:06;98224.03;;;19.09;86.69
18323;BME280;9287;49.456;11.064;2023-07-22T08:28:34;98221.06;;;18.64;89.53
18323;BME280;9287;49.456;11.064;2023-07-22T08:31:02;98219.94;;;19.38;85.55
18323;BME280;9287;49.456;11.064;2023-07-22T08:33:30;98219.19;;;19.27;91.48
18323;BME280;9287;49.456;11.064;2023-07-22T08:36:01;98218.19;;;19.69;92.86
18323;BME280;9287;49.456;11.064;2023-07-22T08:38:31;98212.63;;;19.73;92.53
18323;BME280;9287;49.456;11.064;2023-07-22T08:40:58;98210.19;;;19.75;92.09
18323;BME280;9287;49.456;11.064;2023-07-22T08:43:27;98210.31;;;19.57;93.30
18323;BME280;9287;49.456;11.064;2023-07-22T08:46:00;98207.78;;;19.84;90.86
18323;BME280;9287;49.456;11.064;2023-07-22T08:48:30;98210.09;;;20.71;85.17
18323;BME280;9287;49.456;11.064;2023-07-22T08:51:03;98208.88;;;21.06;80.52
18323;BME280;9287;49.456;11.064;2023-07-22T08:53:33;98206.00;;;20.83;82.13
18323;BME280;9287;49.456;11.064;2023-07-22T08:56:01;98211.25;;;20.40;86.52
18323;BME280;9287;49.456;11.064;2023-07-22T08:58:29;98205.97;;;20.87;81.75
18323;BME280;9287;49.456;11.064;2023-07-22T09:00:58;98196.38;;;22.26;72.05
18323;BME280;9287;49.456;11.064;2023-07-22T09:03:26;98207.22;;;23.03;65.19
18323;BME280;9287;49.456;11.064;2023-07-22T09:05:55;98200.94;;;23.54;58.12
18323;BME280;9287;49.456;11.064;2023-07-22T09:08:23;98206.19;;;23.49;54.72
18323;BME280;9287;49.456;11.064;2023-07-22T09:10:53;98197.69;;;22.17;61.10
18323;BME280;9287;49.456;11.064;2023-07-22T09:13:21;98201.53;;;21.77;65.18
18323;BME280;9287;49.456;11.064;2023-07-22T09:15:50;98195.88;;;22.31;61.61
18323;BME280;9287;49.456;11.064;2023-07-22T09:18:19;98193.03;;;22.54;64.16
18323;BME280;9287;49.456;11.064;2023-07-22T09:20:47;98194.44;;;22.22;64.86
18323;BME280;9287;49.456;11.064;2023-07-22T09:23:15;98188.03;;;22.26;63.30
18323;BME280;9287;49.456;11.064;2023-07-22T09:25:43;98185.84;;;22.56;62.11
18323;BME280;9287;49.456;11.064;2023-07-22T09:28:12;98188.75;;;22.69;59.49
18323;BME280;9287;49.456;11.064;2023-07-22T09:30:40;98176.03;;;21.82;64.10
18323;BME280;9287;49.456;11.064;2023-07-22T09:33:20;98167.63;;;22.52;59.38
18323;BME280;9287;49.456;11.064;2023-07-22T09:35:49;98175.50;;;24.01;51.57
18323;BME280;9287;49.456;11.064;2023-07-22T09:38:22;98173.16;;;25.91;45.23
18323;BME280;9287;49.456;11.064;2023-07-22T09:40:50;98173.50;;;25.81;44.70
18323;BME280;9287;49.456;11.064;2023-07-22T09:43:21;98177.38;;;26.09;44.39
18323;BME280;9287;49.456;11.064;2023-07-22T09:45:50;98166.66;;;27.07;42.36
18323;BME280;9287;49.456;11.064;2023-07-22T09:48:21;98158.22;;;27.29;40.53
18323;BME280;9287;49.456;11.064;2023-07-22T09:50:55;98154.84;;;27.43;39.72
18323;BME280;9287;49.456;11.064;2023-07-22T09:53:23;98151.53;;;27.66;38.81
18323;BME280;9287;49.456;11.064;2023-07-22T09:55:52;98140.88;;;26.47;40.10
18323;BME280;9287;49.456;11.064;2023-07-22T09:58:23;98151.69;;;28.39;37.57
18323;BME280;9287;49.456;11.064;2023-07-22T10:00:53;98142.28;;;28.15;37.24
18323;BME280;9287;49.456;11.064;2023-07-22T10:03:22;98145.72;;;28.83;36.53
18323;BME280;9287;49.456;11.064;2023-07-22T10:05:51;98150.06;;;28.75;36.69
18323;BME280;9287;49.456;11.064;2023-07-22T10:08:19;98141.69;;;28.57;36.38
18323;BME280;9287;49.456;11.064;2023-07-22T10:10:52;98136.38;;;28.40;36.55
18323;BME280;9287;49.456;11.064;2023-07-22T10:13:22;98139.44;;;28.06;37.45
18323;BME280;9287;49.456;11.064;2023-07-22T10:15:51;98132.28;;;26.63;38.82
18323;BME280;9287;49.456;11.064;2023-07-22T10:18:21;98131.88;;;26.52;39.36
18323;BME280;9287;49.456;11.064;2023-07-22T10:20:50;98137.31;;;25.99;39.38
18323;BME280;9287;49.456;11.064;2023-07-22T10:23:20;98124.41;;;24.62;42.60
18323;BME280;9287;49.456;11.064;2023-07-22T10:25:49;98125.19;;;24.05;45.03
18323;BME280;9287;49.456;11.064;2023-07-22T10:28:19;98122.88;;;23.71;47.66
18323;BME280;9287;49.456;11.064;2023-07-22T10:30:49;98123.31;;;23.53;47.78
18323;BME280;9287;49.456;11.064;2023-07-22T10:33:17;98130.50;;;23.18;49.05
18323;BME280;9287;49.456;11.064;2023-07-22T10:36:04;98131.38;;;22.75;51.13
18323;BME280;9287;49.456;11.064;2023-07-22T10:38:32;98126.91;;;22.62;51.30
18323;BME280;9287;49.456;11.064;2023-07-22T10:40:59;98120.47;;;22.25;52.28
18323;BME280;9287;49.456;11.064;2023-07-22T10:43:31;98128.41;;;22.27;53.77
18323;BME280;9287;49.456;11.064;2023-07-22T10:46:08;98125.81;;;21.93;53.91
18323;BME280;9287;49.456;11.064;2023-07-22T10:48:37;98120.56;;;21.98;55.97
18323;BME280;9287;49.456;11.064;2023-07-22T10:51:07;98120.16;;;22.00;55.30
18323;BME280;9287;49.456;11.064;2023-07-22T10:53:40;98127.22;;;22.04;55.50
18323;BME280;9287;49.456;11.064;2023-07-22T10:56:13;98119.25;;;22.06;54.95
18323;BME280;9287;49.456;11.064;2023-07-22T10:58:58;98124.53;;;22.20;53.89
18323;BME280;9287;49.456;11.064;2023-07-22T11:01:36;98121.84;;;22.37;53.34
18323;BME280;9287;49.456;11.064;2023-07-22T11:04:12;98116.56;;;22.62;52.72
18323;BME280;9287;49.456;11.064;2023-07-22T11:06:53;98115.00;;;23.33;49.88
18323;BME280;9287;49.456;11.064;2023-07-22T11:09:35;98118.66;;;23.30;48.64
18323;BME280;9287;49.456;11.064;2023-07-22T11:12:05;98111.16;;;23.27;49.80
18323;BME280;9287;49.456;11.064;2023-07-22T11:14:34;98112.88;;;23.21;48.89
18323;BME280;9287;49.456;11.064;2023-07-22T11:17:04;98107.31;;;23.21;49.02
18323;BME280;9287;49.456;11.064;2023-07-22T11:19:34;98108.22;;;23.18;49.02
18323;BME280;9287;49.456;11.064;2023-07-22T11:22:04;98104.56;;;23.37;48.08
18323;BME280;9287;49.456;11.064;2023-07-22T11:24:34;98099.88;;;23.34;47.24
18323;BME280;9287;49.456;11.064;2023-07-22T11:27:04;98097.75;;;23.38;47.62
18323;BME280;9287;49.456;11.064;2023-07-22T11:29:34;98088.38;;;23.48;47.42
18323;BME280;9287;49.456;11.064;2023-07-22T11:32:04;98087.97;;;23.95;47.21
18323;BME280;9287;49.456;11.064;2023-07-22T11:34:32;98081.13;;;24.70;45.62
18323;BME280;9287;49.456;11.064;2023-07-22T11:37:00;98087.19;;;24.40;44.67
18323;BME280;9287;49.456;11.064;2023-07-22T11:39:30;98078.41;;;23.96;45.94
18323;BME280;9287;49.456;11.064;2023-07-22T11:42:00;98076.88;;;23.63;47.05
18323;BME280;9287;49.456;11.064;2023-07-22T11:44:30;98080.19;;;23.57;48.51
18323;BME280;9287;49.456;11.064;2023-07-22T11:46:59;98083.53;;;23.52;48.39
18323;BME280;9287;49.456;11.064;2023-07-22T11:49:30;98075.50;;;23.54;48.50
18323;BME280;9287;49.456;11.064;2023-07-22T11:51:59;98080.72;;;23.36;49.10
18323;BME280;9287;49.456;11.064;2023-07-22T11:54:28;98077.94;;;23.52;50.33
18323;BME280;9287;49.456;11.064;2023-07-22T11:56:57;98077.72;;;23.76;48.86
18323;BME280;9287;49.456;11.064;2023-07-22T11:59:35;98071.47;;;23.55;49.15
18323;BME280;9287;49.456;11.064;2023-07-22T12:02:04;98060.00;;;23.70;49.36
18323;BME280;9287;49.456;11.064;2023-07-22T12:04:34;98064.66;;;23.73;48.91
18323;BME280;9287;49.456;11.064;2023-07-22T12:07:02;98051.81;;;23.63;49.00
18323;BME280;9287;49.456;11.064;2023-07-22T12:09:31;98051.00;;;24.07;48.82
18323;BME280;9287;49.456;11.064;2023-07-22T12:11:59;98044.06;;;24.95;44.98
18323;BME280;9287;49.456;11.064;2023-07-22T12:14:34;98046.28;;;25.38;43.79
18323;BME280;9287;49.456;11.064;2023-07-22T12:17:02;98036.09;;;25.44;42.96
18323;BME280;9287;49.456;11.064;2023-07-22T12:19:30;98039.09;;;25.97;42.21
18323;BME280;9287;49.456;11.064;2023-07-22T12:21:59;98032.91;;;26.24;41.36
18323;BME280;9287;49.456;11.064;2023-07-22T12:24:27;98029.66;;;26.25;41.18
18323;BME280;9287;49.456;11.064;2023-07-22T12:26:55;98028.69;;;25.63;42.36
18323;BME280;9287;49.456;11.064;2023-07-22T12:29:23;98030.88;;;24.95;43.08
18323;BME280;9287;49.456;11.064;2023-07-22T12:31:52;98018.00;;;24.85;44.60
18323;BME280;9287;49.456;11.064;2023-07-22T12:34:20;98015.75;;;24.13;45.76
18323;BME280;9287;49.456;11.064;2023-07-22T12:36:48;98012.44;;;23.60;46.80
18323;BME280;9287;49.456;11.064;2023-07-22T12:39:17;98017.03;;;23.96;47.53
18323;BME280;9287;49.456;11.064;2023-07-22T12:41:45;98005.19;;;24.21;47.00
18323;BME280;9287;49.456;11.064;2023-07-22T12:44:12;98007.03;;;24.11;47.57
18323;BME280;9287;49.456;11.064;2023-07-22T12:46:40;98005.19;;;23.92;48.61
18323;BME280;9287;49.456;11.064;2023-07-22T12:49:09;97992.97;;;24.02;48.90
18323;BME280;9287;49.456;11.064;2023-07-22T12:51:37;97999.50;;;24.24;47.82
18323;BME280;9287;49.456;11.064;2023-07-22T12:54:04;97989.53;;;24.65;45.97
18323;BME280;9287;49.456;11.064;2023-07-22T12:56:33;97988.50;;;24.34;46.27
18323;BME280;9287;49.456;11.064;2023-07-22T12:59:01;97989.94;;;23.68;47.46
18323;BME280;9287;49.456;11.064;2023-07-22T13:01:29;97987.19;;;23.51;48.60